Terminal Aerodrome Forecast
Issued by NWS Raleigh/Durham, NC

Home | Current Version | Previous Version | Text Only | Print | Product List | Glossary On
Versions: 1 2 3 4 5 6 7 8 9 10 11 12
000
FTUS42 KRAH 241726
TAFGSO
TAF
KGSO 241726Z 2418/2518 18005KT P6SM BKN045
     FM242300 16004KT P6SM SCT040 BKN250
     FM251500 24005KT P6SM SCT050=

USA.gov is the U.S. government's official web portal to all federal, state and local government web resources and services.